気をゆるめるな

0002

| | コメント (0)

2020/07/03

定点 富山空港 2020/7/3 fri

東京では、日に日に第二波が拡大していて、そこから行き来した人が飛び火のように、地方にウイルスを運んでいます。都会へ行って来た人は、自身の行動を振り返り、隙が無かったかよーく考えてください。

RJNT 022300Z 33003KT 300V360 9999 FEW010 SCT013 BKN045 22/20 Q1015

20200703_rjnt_00ja03an

ANA313 RJTT-RJNT JA03AN B737-781

雲底が低くて、かろうじて視認

RJNT 030000Z 36007KT 9999 VCSH FEW010 BKN020 BKN/// 22/19 Q1014

20200703_rjnt_01ja03an

20200703_rjnt_02ja03an

20200703_rjnt_03ja03an

ANA316 RJNT-RJTT JA03AN B737-781

20200703_rjnt_04kiji

用事を済ませて、まったりしていたら「ケーン、ケーン」

RJNT 030400Z 36009KT 9999 FEW015 SCT025 BKN050 24/19 Q1013

20200703_rjnt_05ja6512

JA6512↓ AS350B3 AKF

この後 JA6502 JA139T が飛んでいるのは確認した。

| | コメント (0)

2020/07/01

夜活 富山空港 2020/7/1 wed

2020年も折り返し。年初オリンピックで期待が膨らんでいたところに、武漢肺炎の襲来により、経験したことのない未曾有の事態に。自粛がやわく解除されて、本日から青組夜の便が復活するので、夜活です。

RJNT 011000Z 27007KT 9999 FEW005 BKN018 23/19 Q1003

20200701_rjnt_00ja05an

富山市に大雨警報が出てる中、市街地は平穏です。

20200701_rjnt_01ja05an

なんとか薄明の中、アプローチ。

20200701_rjnt_02ja05an

山で大量の降雨で、河は濁流です。

20200701_rjnt_03ja05an

ANA319 RJTT-RJNT JA05AN B737-781

20200701_rjnt_04toyama

4月16日以来の319到着です。

20200701_rjnt_05toyama

空ビル内には、ガイドラインが掲示されています。

20200701_rjnt_06toyama

20200701_rjnt_07ja05an

約40名ほどの搭乗。

20200701_rjnt_08ja05an

20200701_rjnt_09ja05an

ANA322 RJNT-RJTT JA05AN B737-781

20200701_rjnt_10ja05an

当面チビ3が入るようです。neoはどっか行っちゃいます。

20200701_rjnt_11ja05an

ニューノーマルは、三歩進んで一歩下がるくらいのペースなのかな。

| | コメント (0)

«### RJNT log 202006 ###